Millwall — A8XQ8 — position and weather

sailwx.info

Track history (hours):
 
Tides and Currents Weather Stations Pressure Air Temp Water Temp Dewpoint Dewpoint Depression Visibility Wind Speed Wind Dir Waves Ship Positions

Millwall

Last reported at 2018-Apr-24 20:21 UTC. Time now 2018-Jul-19 23:16 UTC.
Position N 31°13' W 122°57'.
Warning: this ship's position is months out of date.

Length 188 m; draft 10.4 m.

Type: Cargo ship. MMSI: 636017690.

Date/timePositionNaut miles runAvg speedWind from/ knotsBaromVisibWave heightAir tempDewpointWater temp
2018-Apr-24 20:21N 31°13' W 122°57'17110.4
2018-Apr-24 03:58N 33°26' W 125°04'21310.7
2018-Apr-23 08:07N 36°32' W 127°12'210.2
2018-Apr-23 07:57N 36°33' W 127°13'  
2018-Apr-19 23:00N 48°13' W 125°46'5 9.0
2018-Apr-19 22:24N 48°15' W 125°39'4 9.8
2018-Apr-19 22:00N 48°18' W 125°35'7 9.9
2018-Apr-19 21:18N 48°23' W 125°27'3 9.6
2018-Apr-19 21:00N 48°25' W 125°24'5 9.5
2018-Apr-19 20:26N 48°28' W 125°18'4 9.0
2018-Apr-19 19:59N 48°30' W 125°13'5 9.5
2018-Apr-19 19:30N 48°31' W 125°06'5 9.7
2018-Apr-19 19:00N 48°31' W 124°59'5 9.3
2018-Apr-19 18:30N 48°31' W 124°52'4 9.0
2018-Apr-19 18:00N 48°31' W 124°45'5 9.8
2018-Apr-19 17:30N 48°29' W 124°38'5 9.9
2018-Apr-19 17:00N 48°27' W 124°31'510.0
2018-Apr-19 16:30N 48°25' W 124°24'611.1
2018-Apr-19 16:00N 48°23' W 124°16'611.3
2018-Apr-19 15:29N 48°21' W 124°08'511.5
2018-Apr-19 15:00N 48°19' W 124°00'610.9
2018-Apr-19 14:26N 48°17' W 123°51'710.2
2018-Apr-19 13:47N 48°16' W 123°41'4 9.6
2018-Apr-19 13:21N 48°16' W 123°35'3 8.7
2018-Apr-19 13:00N 48°16' W 123°31'5 9.2
2018-Apr-19 12:30N 48°20' W 123°27'4 9.0
2018-Apr-19 12:00N 48°23' W 123°22'4 8.8
2018-Apr-19 11:30N 48°24' W 123°16'4 7.1
2018-Apr-19 10:59N 48°27' W 123°12'612.5
2018-Apr-19 10:30N 48°33' W 123°13'713.3
2018-Apr-19 10:00N 48°39' W 123°15'611.4
2018-Apr-19 09:30N 48°44' W 123°10'713.1
2018-Apr-19 09:00N 48°47' W 123°01'612.3
2018-Apr-19 08:30N 48°52' W 123°06'713.5
2018-Apr-19 08:00N 48°57' W 123°13'713.4
2018-Apr-19 07:30N 49°02' W 123°21'612.5
2018-Apr-19 07:00N 49°08' W 123°23'713.6
2018-Apr-19 06:29N 49°15' W 123°21'611.5
2018-Apr-19 06:00N 49°19' W 123°15'510.0
2018-Apr-19 05:30N 49°19' W 123°08'3 6.0
2018-Apr-19 05:00N 49°18' W 123°03'1 1.3
2018-Apr-19 04:21N 49°18' W 123°02'0 0.0
2018-Apr-19 04:00N 49°18' W 123°02'0 0.0
2018-Apr-19 03:24N 49°18' W 123°02'0 0.0
2018-Apr-19 03:00N 49°18' W 123°02'0 0.0
2018-Apr-19 02:30N 49°18' W 123°02'0 0.0
2018-Apr-19 01:57N 49°18' W 123°02'0 0.0
2018-Apr-19 01:15N 49°18' W 123°02'0 0.0
2018-Apr-19 01:00N 49°18' W 123°02'0 0.0
2018-Apr-19 00:30N 49°18' W 123°02'0 0.0
2018-Apr-18 23:57N 49°18' W 123°02'0 0.0
2018-Apr-18 23:27N 49°18' W 123°02'0 0.0
2018-Apr-18 22:57N 49°18' W 123°02'0 0.0
2018-Apr-18 22:30N 49°18' W 123°02'0 0.0
2018-Apr-18 22:00N 49°18' W 123°02'0 0.0
2018-Apr-18 21:18N 49°18' W 123°02'0 0.0
2018-Apr-18 20:54N 49°18' W 123°02'0 0.0
2018-Apr-18 20:30N 49°18' W 123°02'0 0.0
2018-Apr-18 20:00N 49°18' W 123°02'0 0.0
2018-Apr-18 19:27N 49°18' W 123°02'0 0.0
2018-Apr-18 19:00N 49°18' W 123°02'0 0.0
2018-Apr-18 18:30N 49°18' W 123°02'0 0.0
2018-Apr-18 18:00N 49°18' W 123°02'0 0.0
2018-Apr-18 17:30N 49°18' W 123°02'0 0.0
2018-Apr-18 17:00N 49°18' W 123°02'0 0.0
2018-Apr-18 16:30N 49°18' W 123°02'0 0.0
2018-Apr-18 16:00N 49°18' W 123°02'0 0.0
2018-Apr-18 15:30N 49°18' W 123°02'0 0.6
2018-Apr-18 15:00N 49°18' W 123°02'1 3.0
2018-Apr-18 14:30N 49°18' W 123°05'4 8.1
2018-Apr-18 14:00N 49°19' W 123°10'2 5.0
2018-Apr-18 13:30N 49°20' W 123°14'0 0.1
2018-Apr-18 13:00N 49°20' W 123°14'0 0.1
2018-Apr-18 12:26N 49°20' W 123°14'0 0.1
2018-Apr-18 11:59N 49°20' W 123°14'0 0.1
2018-Apr-18 11:30N 49°20' W 123°14'0 0.0
2018-Apr-18 11:00N 49°20' W 123°14'0 0.1
2018-Apr-18 10:29N 49°20' W 123°14'0 0.0
2018-Apr-18 09:59N 49°20' W 123°14'0 0.0
2018-Apr-18 09:29N 49°20' W 123°14'0 0.0
2018-Apr-18 08:56N 49°20' W 123°14'0 0.0
2018-Apr-18 08:26N 49°20' W 123°14'0 0.0
2018-Apr-18 07:59N 49°20' W 123°14'0 0.1
2018-Apr-18 07:26N 49°20' W 123°14'0 0.1
2018-Apr-18 07:00N 49°20' W 123°14'0 0.0
2018-Apr-18 06:29N 49°20' W 123°14'0 0.1
2018-Apr-18 05:59N 49°20' W 123°14'0 0.1
2018-Apr-18 05:29N 49°20' W 123°14'0 0.0
2018-Apr-18 04:56N 49°20' W 123°14'0 0.1
2018-Apr-18 04:29N 49°20' W 123°14'0 0.0
2018-Apr-18 03:59N 49°20' W 123°14'0 0.1
2018-Apr-18 03:29N 49°20' W 123°14'0 0.0
2018-Apr-18 02:59N 49°20' W 123°14'0 0.0
2018-Apr-18 02:29N 49°20' W 123°14'0 0.0
2018-Apr-18 01:59N 49°20' W 123°14'0 0.1
2018-Apr-18 01:26N 49°20' W 123°14'0 0.1
2018-Apr-18 00:59N 49°20' W 123°14'0 0.0
2018-Apr-18 00:26N 49°20' W 123°14'0 0.0
2018-Apr-17 23:59N 49°20' W 123°14'0 0.0
2018-Apr-17 23:17N 49°20' W 123°14'0 0.2
2018-Apr-17 22:59N 49°20' W 123°14'0 0.1
2018-Apr-17 22:20N 49°20' W 123°14'0 0.1
2018-Apr-17 21:59N 49°20' W 123°14'0 0.0
2018-Apr-17 21:26N 49°20' W 123°14'0 0.0
2018-Apr-17 20:56N 49°20' W 123°14'0 0.0
2018-Apr-17 20:26N 49°20' W 123°14'0 0.0
2018-Apr-17 19:56N 49°20' W 123°14'0 0.0
2018-Apr-17 19:29N 49°20' W 123°14'0 0.0
2018-Apr-17 18:59N 49°20' W 123°14'0 0.0
2018-Apr-17 18:26N 49°20' W 123°14'0 0.3
2018-Apr-17 17:59N 49°20' W 123°14'0 0.3
2018-Apr-17 17:29N 49°20' W 123°14'0 0.1
2018-Apr-17 16:56N 49°20' W 123°14'0 0.0
2018-Apr-17 16:29N 49°20' W 123°14'0 0.1
2018-Apr-17 15:50N 49°20' W 123°14'0 0.1
2018-Apr-17 15:29N 49°20' W 123°14'0 0.0
2018-Apr-17 14:59N 49°20' W 123°14'0 0.1
2018-Apr-17 14:29N 49°20' W 123°14'0 0.1
2018-Apr-17 13:59N 49°20' W 123°14'0 0.2
2018-Apr-17 13:29N 49°20' W 123°14'0 0.1
2018-Apr-17 12:56N 49°20' W 123°14'0 0.1
2018-Apr-17 12:29N 49°20' W 123°14'0 0.1
2018-Apr-17 11:56N 49°20' W 123°14'0 0.1
2018-Apr-17 11:29N 49°20' W 123°14'0 0.1
2018-Apr-17 10:59N 49°20' W 123°14'0 0.0
2018-Apr-17 10:26N 49°20' W 123°14'0 0.0
2018-Apr-17 09:53N 49°20' W 123°14'0 0.0
2018-Apr-17 09:29N 49°20' W 123°14'0 0.0
2018-Apr-17 08:56N 49°20' W 123°14'0 0.1
2018-Apr-17 08:29N 49°20' W 123°14'0 0.1
2018-Apr-17 07:59N 49°20' W 123°14'0 0.1
2018-Apr-17 07:29N 49°20' W 123°14'0 0.0
2018-Apr-17 06:59N 49°20' W 123°14'0 0.1
2018-Apr-17 06:29N 49°20' W 123°14'0 0.0
2018-Apr-17 05:56N 49°20' W 123°14'0 0.0
2018-Apr-17 05:26N 49°20' W 123°14'0 0.0
2018-Apr-17 04:59N 49°20' W 123°14'0 0.0
2018-Apr-17 04:23N 49°20' W 123°14'0 0.1
2018-Apr-17 03:56N 49°20' W 123°14'0 0.0
2018-Apr-17 03:29N 49°20' W 123°14'0 0.0
2018-Apr-17 02:59N 49°20' W 123°14'0 0.0
2018-Apr-17 02:23N 49°20' W 123°14'0 0.0
2018-Apr-17 01:59N 49°20' W 123°14'0 0.0
2018-Apr-17 01:29N 49°20' W 123°14'0 0.0
2018-Apr-17 00:56N 49°20' W 123°14'0 0.0
2018-Apr-17 00:26N 49°20' W 123°14'0 0.0
2018-Apr-16 23:59N 49°20' W 123°14'0 0.0
2018-Apr-16 23:29N 49°20' W 123°14'0 0.0
2018-Apr-16 22:59N 49°20' W 123°14'0 0.0
2018-Apr-16 22:26N 49°20' W 123°14'0 0.0
2018-Apr-16 21:59N 49°20' W 123°14'0 0.0
2018-Apr-16 21:26N 49°20' W 123°14'0 0.0
2018-Apr-16 20:44N 49°20' W 123°14'0 0.0
2018-Apr-16 20:23N 49°20' W 123°14'0 0.0
2018-Apr-16 19:59N 49°20' W 123°14'0 0.0
2018-Apr-16 19:29N 49°20' W 123°14'0 0.0
2018-Apr-16 18:59N 49°20' W 123°14'0 0.1
2018-Apr-16 18:20N 49°20' W 123°14'0 0.1
2018-Apr-16 17:53N 49°20' W 123°14'0 0.1
2018-Apr-16 17:26N 49°20' W 123°14'0 0.0
2018-Apr-16 16:59N 49°20' W 123°14'0 0.0
2018-Apr-16 16:29N 49°20' W 123°14'0 0.0
2018-Apr-16 15:56N 49°20' W 123°14'0 0.0
2018-Apr-16 15:29N 49°20' W 123°14'0 0.0
2018-Apr-16 14:56N 49°20' W 123°14'0 0.1
2018-Apr-16 14:29N 49°20' W 123°14'0 0.1
2018-Apr-16 13:59N 49°20' W 123°14'0 0.0
2018-Apr-16 13:29N 49°20' W 123°14'0 0.1
2018-Apr-16 12:59N 49°20' W 123°14'0 0.0
2018-Apr-16 12:29N 49°20' W 123°14'0 0.1
2018-Apr-16 11:59N 49°20' W 123°14'0 0.2
2018-Apr-16 11:29N 49°20' W 123°14'0 0.1
2018-Apr-16 10:59N 49°20' W 123°14'0 0.1
2018-Apr-16 10:23N 49°20' W 123°14'0 0.0
2018-Apr-16 09:59N 49°20' W 123°14'0 0.2
2018-Apr-16 09:29N 49°20' W 123°14'0 0.1
2018-Apr-16 08:59N 49°20' W 123°14'0 0.0
2018-Apr-16 08:29N 49°20' W 123°14'0 0.1
2018-Apr-16 07:59N 49°20' W 123°14'0 0.1
2018-Apr-16 07:23N 49°20' W 123°14'0 0.1
2018-Apr-16 06:59N 49°20' W 123°14'0 0.0
2018-Apr-16 06:29N 49°20' W 123°14'0 0.3
2018-Apr-16 05:59N 49°20' W 123°14'0 0.1
2018-Apr-16 05:29N 49°20' W 123°14'0 0.2
2018-Apr-16 04:59N 49°20' W 123°14'0 0.0
2018-Apr-16 04:29N 49°20' W 123°14'0 0.1
2018-Apr-16 03:56N 49°20' W 123°14'0 0.1
2018-Apr-16 03:29N 49°20' W 123°14'0 0.1
2018-Apr-16 02:59N 49°20' W 123°14'0 0.2
2018-Apr-16 02:29N 49°20' W 123°14'0 0.0
2018-Apr-16 01:56N 49°20' W 123°14'0 0.1
2018-Apr-16 01:29N 49°20' W 123°14'0 0.0
2018-Apr-16 00:56N 49°20' W 123°14'0 0.0
2018-Apr-16 00:29N 49°20' W 123°14'0 0.1
2018-Apr-15 23:56N 49°20' W 123°14'0 0.0
2018-Apr-15 23:29N 49°20' W 123°14'0 0.1
2018-Apr-15 22:56N 49°20' W 123°14'0 0.1
2018-Apr-15 22:23N 49°20' W 123°14'0 0.3
2018-Apr-15 21:56N 49°20' W 123°14'0 0.0
2018-Apr-15 21:29N 49°20' W 123°14'0 0.1
2018-Apr-15 20:59N 49°20' W 123°14'0 0.1
2018-Apr-15 20:29N 49°20' W 123°14'0 0.1
2018-Apr-15 19:56N 49°20' W 123°14'0 0.1
2018-Apr-15 19:26N 49°20' W 123°14'0 0.0
2018-Apr-15 18:56N 49°20' W 123°14'0 0.0
2018-Apr-15 18:29N 49°20' W 123°14'0 0.1
2018-Apr-15 17:59N 49°20' W 123°14'0 0.1
2018-Apr-15 17:26N 49°20' W 123°14'0 0.1
2018-Apr-15 16:59N 49°20' W 123°14'0 0.2
2018-Apr-15 16:26N 49°20' W 123°14'0 0.0
2018-Apr-15 15:56N 49°20' W 123°14'0 0.1
2018-Apr-15 15:23N 49°20' W 123°14'0 0.0
2018-Apr-15 14:59N 49°20' W 123°14'0 0.1
2018-Apr-15 14:26N 49°20' W 123°14'0 0.2
2018-Apr-15 13:59N 49°20' W 123°14'0 0.1
2018-Apr-15 13:29N 49°20' W 123°14'2 4.0
2018-Apr-15 13:00N 49°19' W 123°11'4 8.4
2018-Apr-15 12:30N 49°18' W 123°05'2 3.1
2018-Apr-15 11:51N 49°18' W 123°02'0 0.0
2018-Apr-15 11:21N 49°18' W 123°02'0 0.0
2018-Apr-15 10:57N 49°18' W 123°02'0 0.0
2018-Apr-15 10:30N 49°18' W 123°02'0 0.0
2018-Apr-15 09:54N 49°18' W 123°02'0 0.0
2018-Apr-15 09:27N 49°18' W 123°02'0 0.0
2018-Apr-15 09:00N 49°18' W 123°02'0 0.0
2018-Apr-15 08:30N 49°18' W 123°02'0 0.0
2018-Apr-15 08:00N 49°18' W 123°02'0 0.0
2018-Apr-15 07:30N 49°18' W 123°02'0 0.0
2018-Apr-15 07:00N 49°18' W 123°02'0 0.0
2018-Apr-15 06:27N 49°18' W 123°02'0 0.0
2018-Apr-15 06:00N 49°18' W 123°02'0 0.0
2018-Apr-15 05:12N 49°18' W 123°02'0 0.0
2018-Apr-15 05:00N 49°18' W 123°02'0 0.0
2018-Apr-15 04:24N 49°18' W 123°02'0 0.0
2018-Apr-15 03:57N 49°18' W 123°02'0 0.0
2018-Apr-15 03:27N 49°18' W 123°02'0 0.0
2018-Apr-15 03:00N 49°18' W 123°02'0 0.0
2018-Apr-15 02:30N 49°18' W 123°02'0 0.0
2018-Apr-15 02:00N 49°18' W 123°02'0 0.0
2018-Apr-15 01:30N 49°18' W 123°02'0 0.0
2018-Apr-15 01:00N 49°18' W 123°02'0 0.0
2018-Apr-15 00:27N 49°18' W 123°02'0 0.0
2018-Apr-15 00:00N 49°18' W 123°02'0 0.0
2018-Apr-14 23:30N 49°18' W 123°02'0 0.0
2018-Apr-14 22:57N 49°18' W 123°02'0 0.0
2018-Apr-14 22:30N 49°18' W 123°02'0 0.0
2018-Apr-14 22:00N 49°18' W 123°02'0 0.0
2018-Apr-14 21:30N 49°18' W 123°02'0 0.0
2018-Apr-14 21:00N 49°18' W 123°02'0 0.0
2018-Apr-14 20:30N 49°18' W 123°02'  
Track history (hours):
 
Tides and Currents Weather Stations Pressure Air Temp Water Temp Dewpoint Dewpoint Depression Visibility Wind Speed Wind Dir Waves Ship Positions

Millwall

Last reported at 2018-Apr-24 20:21 UTC. Time now 2018-Jul-19 23:16 UTC.
Position N 31°13' W 122°57'.
Warning: this ship's position is months out of date.

Length 188 m; draft 10.4 m.

Type: Cargo ship. MMSI: 636017690.

Date/timePositionNaut miles runAvg speedWind from/ knotsBaromVisibWave heightAir tempDewpointWater temp
2018-Apr-24 20:21N 31°13' W 122°57'17110.4
2018-Apr-24 03:58N 33°26' W 125°04'21310.7
2018-Apr-23 08:07N 36°32' W 127°12'210.2
2018-Apr-23 07:57N 36°33' W 127°13'  
2018-Apr-19 23:00N 48°13' W 125°46'5 9.0
2018-Apr-19 22:24N 48°15' W 125°39'4 9.8
2018-Apr-19 22:00N 48°18' W 125°35'7 9.9
2018-Apr-19 21:18N 48°23' W 125°27'3 9.6
2018-Apr-19 21:00N 48°25' W 125°24'5 9.5
2018-Apr-19 20:26N 48°28' W 125°18'4 9.0
2018-Apr-19 19:59N 48°30' W 125°13'5 9.5
2018-Apr-19 19:30N 48°31' W 125°06'5 9.7
2018-Apr-19 19:00N 48°31' W 124°59'5 9.3
2018-Apr-19 18:30N 48°31' W 124°52'4 9.0
2018-Apr-19 18:00N 48°31' W 124°45'5 9.8
2018-Apr-19 17:30N 48°29' W 124°38'5 9.9
2018-Apr-19 17:00N 48°27' W 124°31'510.0
2018-Apr-19 16:30N 48°25' W 124°24'611.1
2018-Apr-19 16:00N 48°23' W 124°16'611.3
2018-Apr-19 15:29N 48°21' W 124°08'511.5
2018-Apr-19 15:00N 48°19' W 124°00'610.9
2018-Apr-19 14:26N 48°17' W 123°51'710.2
2018-Apr-19 13:47N 48°16' W 123°41'4 9.6
2018-Apr-19 13:21N 48°16' W 123°35'3 8.7
2018-Apr-19 13:00N 48°16' W 123°31'5 9.2
2018-Apr-19 12:30N 48°20' W 123°27'4 9.0
2018-Apr-19 12:00N 48°23' W 123°22'4 8.8
2018-Apr-19 11:30N 48°24' W 123°16'4 7.1
2018-Apr-19 10:59N 48°27' W 123°12'612.5
2018-Apr-19 10:30N 48°33' W 123°13'713.3
2018-Apr-19 10:00N 48°39' W 123°15'611.4
2018-Apr-19 09:30N 48°44' W 123°10'713.1
2018-Apr-19 09:00N 48°47' W 123°01'612.3
2018-Apr-19 08:30N 48°52' W 123°06'713.5
2018-Apr-19 08:00N 48°57' W 123°13'713.4
2018-Apr-19 07:30N 49°02' W 123°21'612.5
2018-Apr-19 07:00N 49°08' W 123°23'713.6
2018-Apr-19 06:29N 49°15' W 123°21'611.5
2018-Apr-19 06:00N 49°19' W 123°15'510.0
2018-Apr-19 05:30N 49°19' W 123°08'3 6.0
2018-Apr-19 05:00N 49°18' W 123°03'1 1.3
2018-Apr-19 04:21N 49°18' W 123°02'0 0.0
2018-Apr-19 04:00N 49°18' W 123°02'0 0.0
2018-Apr-19 03:24N 49°18' W 123°02'0 0.0
2018-Apr-19 03:00N 49°18' W 123°02'0 0.0
2018-Apr-19 02:30N 49°18' W 123°02'0 0.0
2018-Apr-19 01:57N 49°18' W 123°02'0 0.0
2018-Apr-19 01:15N 49°18' W 123°02'0 0.0
2018-Apr-19 01:00N 49°18' W 123°02'0 0.0
2018-Apr-19 00:30N 49°18' W 123°02'0 0.0
2018-Apr-18 23:57N 49°18' W 123°02'0 0.0
2018-Apr-18 23:27N 49°18' W 123°02'0 0.0
2018-Apr-18 22:57N 49°18' W 123°02'0 0.0
2018-Apr-18 22:30N 49°18' W 123°02'0 0.0
2018-Apr-18 22:00N 49°18' W 123°02'0 0.0
2018-Apr-18 21:18N 49°18' W 123°02'0 0.0
2018-Apr-18 20:54N 49°18' W 123°02'0 0.0
2018-Apr-18 20:30N 49°18' W 123°02'0 0.0
2018-Apr-18 20:00N 49°18' W 123°02'0 0.0
2018-Apr-18 19:27N 49°18' W 123°02'0 0.0
2018-Apr-18 19:00N 49°18' W 123°02'0 0.0
2018-Apr-18 18:30N 49°18' W 123°02'0 0.0
2018-Apr-18 18:00N 49°18' W 123°02'0 0.0
2018-Apr-18 17:30N 49°18' W 123°02'0 0.0
2018-Apr-18 17:00N 49°18' W 123°02'0 0.0
2018-Apr-18 16:30N 49°18' W 123°02'0 0.0
2018-Apr-18 16:00N 49°18' W 123°02'0 0.0
2018-Apr-18 15:30N 49°18' W 123°02'0 0.6
2018-Apr-18 15:00N 49°18' W 123°02'1 3.0
2018-Apr-18 14:30N 49°18' W 123°05'4 8.1
2018-Apr-18 14:00N 49°19' W 123°10'2 5.0
2018-Apr-18 13:30N 49°20' W 123°14'0 0.1
2018-Apr-18 13:00N 49°20' W 123°14'0 0.1
2018-Apr-18 12:26N 49°20' W 123°14'0 0.1
2018-Apr-18 11:59N 49°20' W 123°14'0 0.1
2018-Apr-18 11:30N 49°20' W 123°14'0 0.0
2018-Apr-18 11:00N 49°20' W 123°14'0 0.1
2018-Apr-18 10:29N 49°20' W 123°14'0 0.0
2018-Apr-18 09:59N 49°20' W 123°14'0 0.0
2018-Apr-18 09:29N 49°20' W 123°14'0 0.0
2018-Apr-18 08:56N 49°20' W 123°14'0 0.0
2018-Apr-18 08:26N 49°20' W 123°14'0 0.0
2018-Apr-18 07:59N 49°20' W 123°14'0 0.1
2018-Apr-18 07:26N 49°20' W 123°14'0 0.1
2018-Apr-18 07:00N 49°20' W 123°14'0 0.0
2018-Apr-18 06:29N 49°20' W 123°14'0 0.1
2018-Apr-18 05:59N 49°20' W 123°14'0 0.1
2018-Apr-18 05:29N 49°20' W 123°14'0 0.0
2018-Apr-18 04:56N 49°20' W 123°14'0 0.1
2018-Apr-18 04:29N 49°20' W 123°14'0 0.0
2018-Apr-18 03:59N 49°20' W 123°14'0 0.1
2018-Apr-18 03:29N 49°20' W 123°14'0 0.0
2018-Apr-18 02:59N 49°20' W 123°14'0 0.0
2018-Apr-18 02:29N 49°20' W 123°14'0 0.0
2018-Apr-18 01:59N 49°20' W 123°14'0 0.1
2018-Apr-18 01:26N 49°20' W 123°14'0 0.1
2018-Apr-18 00:59N 49°20' W 123°14'0 0.0
2018-Apr-18 00:26N 49°20' W 123°14'0 0.0
2018-Apr-17 23:59N 49°20' W 123°14'0 0.0
2018-Apr-17 23:17N 49°20' W 123°14'0 0.2
2018-Apr-17 22:59N 49°20' W 123°14'0 0.1
2018-Apr-17 22:20N 49°20' W 123°14'0 0.1
2018-Apr-17 21:59N 49°20' W 123°14'0 0.0
2018-Apr-17 21:26N 49°20' W 123°14'0 0.0
2018-Apr-17 20:56N 49°20' W 123°14'0 0.0
2018-Apr-17 20:26N 49°20' W 123°14'0 0.0
2018-Apr-17 19:56N 49°20' W 123°14'0 0.0
2018-Apr-17 19:29N 49°20' W 123°14'0 0.0
2018-Apr-17 18:59N 49°20' W 123°14'0 0.0
2018-Apr-17 18:26N 49°20' W 123°14'0 0.3
2018-Apr-17 17:59N 49°20' W 123°14'0 0.3
2018-Apr-17 17:29N 49°20' W 123°14'0 0.1
2018-Apr-17 16:56N 49°20' W 123°14'0 0.0
2018-Apr-17 16:29N 49°20' W 123°14'0 0.1
2018-Apr-17 15:50N 49°20' W 123°14'0 0.1
2018-Apr-17 15:29N 49°20' W 123°14'0 0.0
2018-Apr-17 14:59N 49°20' W 123°14'0 0.1
2018-Apr-17 14:29N 49°20' W 123°14'0 0.1
2018-Apr-17 13:59N 49°20' W 123°14'0 0.2
2018-Apr-17 13:29N 49°20' W 123°14'0 0.1
2018-Apr-17 12:56N 49°20' W 123°14'0 0.1
2018-Apr-17 12:29N 49°20' W 123°14'0 0.1
2018-Apr-17 11:56N 49°20' W 123°14'0 0.1
2018-Apr-17 11:29N 49°20' W 123°14'0 0.1
2018-Apr-17 10:59N 49°20' W 123°14'0 0.0
2018-Apr-17 10:26N 49°20' W 123°14'0 0.0
2018-Apr-17 09:53N 49°20' W 123°14'0 0.0
2018-Apr-17 09:29N 49°20' W 123°14'0 0.0
2018-Apr-17 08:56N 49°20' W 123°14'0 0.1
2018-Apr-17 08:29N 49°20' W 123°14'0 0.1
2018-Apr-17 07:59N 49°20' W 123°14'0 0.1
2018-Apr-17 07:29N 49°20' W 123°14'0 0.0
2018-Apr-17 06:59N 49°20' W 123°14'0 0.1
2018-Apr-17 06:29N 49°20' W 123°14'0 0.0
2018-Apr-17 05:56N 49°20' W 123°14'0 0.0
2018-Apr-17 05:26N 49°20' W 123°14'0 0.0
2018-Apr-17 04:59N 49°20' W 123°14'0 0.0
2018-Apr-17 04:23N 49°20' W 123°14'0 0.1
2018-Apr-17 03:56N 49°20' W 123°14'0 0.0
2018-Apr-17 03:29N 49°20' W 123°14'0 0.0
2018-Apr-17 02:59N 49°20' W 123°14'0 0.0
2018-Apr-17 02:23N 49°20' W 123°14'0 0.0
2018-Apr-17 01:59N 49°20' W 123°14'0 0.0
2018-Apr-17 01:29N 49°20' W 123°14'0 0.0
2018-Apr-17 00:56N 49°20' W 123°14'0 0.0
2018-Apr-17 00:26N 49°20' W 123°14'0 0.0
2018-Apr-16 23:59N 49°20' W 123°14'0 0.0
2018-Apr-16 23:29N 49°20' W 123°14'0 0.0
2018-Apr-16 22:59N 49°20' W 123°14'0 0.0
2018-Apr-16 22:26N 49°20' W 123°14'0 0.0
2018-Apr-16 21:59N 49°20' W 123°14'0 0.0
2018-Apr-16 21:26N 49°20' W 123°14'0 0.0
2018-Apr-16 20:44N 49°20' W 123°14'0 0.0
2018-Apr-16 20:23N 49°20' W 123°14'0 0.0
2018-Apr-16 19:59N 49°20' W 123°14'0 0.0
2018-Apr-16 19:29N 49°20' W 123°14'0 0.0
2018-Apr-16 18:59N 49°20' W 123°14'0 0.1
2018-Apr-16 18:20N 49°20' W 123°14'0 0.1
2018-Apr-16 17:53N 49°20' W 123°14'0 0.1
2018-Apr-16 17:26N 49°20' W 123°14'0 0.0
2018-Apr-16 16:59N 49°20' W 123°14'0 0.0
2018-Apr-16 16:29N 49°20' W 123°14'0 0.0
2018-Apr-16 15:56N 49°20' W 123°14'0 0.0
2018-Apr-16 15:29N 49°20' W 123°14'0 0.0
2018-Apr-16 14:56N 49°20' W 123°14'0 0.1
2018-Apr-16 14:29N 49°20' W 123°14'0 0.1
2018-Apr-16 13:59N 49°20' W 123°14'0 0.0
2018-Apr-16 13:29N 49°20' W 123°14'0 0.1
2018-Apr-16 12:59N 49°20' W 123°14'0 0.0
2018-Apr-16 12:29N 49°20' W 123°14'0 0.1
2018-Apr-16 11:59N 49°20' W 123°14'0 0.2
2018-Apr-16 11:29N 49°20' W 123°14'0 0.1
2018-Apr-16 10:59N 49°20' W 123°14'0 0.1
2018-Apr-16 10:23N 49°20' W 123°14'0 0.0
2018-Apr-16 09:59N 49°20' W 123°14'0 0.2
2018-Apr-16 09:29N 49°20' W 123°14'0 0.1
2018-Apr-16 08:59N 49°20' W 123°14'0 0.0
2018-Apr-16 08:29N 49°20' W 123°14'0 0.1
2018-Apr-16 07:59N 49°20' W 123°14'0 0.1
2018-Apr-16 07:23N 49°20' W 123°14'0 0.1
2018-Apr-16 06:59N 49°20' W 123°14'0 0.0
2018-Apr-16 06:29N 49°20' W 123°14'0 0.3
2018-Apr-16 05:59N 49°20' W 123°14'0 0.1
2018-Apr-16 05:29N 49°20' W 123°14'0 0.2
2018-Apr-16 04:59N 49°20' W 123°14'0 0.0
2018-Apr-16 04:29N 49°20' W 123°14'0 0.1
2018-Apr-16 03:56N 49°20' W 123°14'0 0.1
2018-Apr-16 03:29N 49°20' W 123°14'0 0.1
2018-Apr-16 02:59N 49°20' W 123°14'0 0.2
2018-Apr-16 02:29N 49°20' W 123°14'0 0.0
2018-Apr-16 01:56N 49°20' W 123°14'0 0.1
2018-Apr-16 01:29N 49°20' W 123°14'0 0.0
2018-Apr-16 00:56N 49°20' W 123°14'0 0.0
2018-Apr-16 00:29N 49°20' W 123°14'0 0.1
2018-Apr-15 23:56N 49°20' W 123°14'0 0.0
2018-Apr-15 23:29N 49°20' W 123°14'0 0.1
2018-Apr-15 22:56N 49°20' W 123°14'0 0.1
2018-Apr-15 22:23N 49°20' W 123°14'0 0.3
2018-Apr-15 21:56N 49°20' W 123°14'0 0.0
2018-Apr-15 21:29N 49°20' W 123°14'0 0.1
2018-Apr-15 20:59N 49°20' W 123°14'0 0.1
2018-Apr-15 20:29N 49°20' W 123°14'0 0.1
2018-Apr-15 19:56N 49°20' W 123°14'0 0.1
2018-Apr-15 19:26N 49°20' W 123°14'0 0.0
2018-Apr-15 18:56N 49°20' W 123°14'0 0.0
2018-Apr-15 18:29N 49°20' W 123°14'0 0.1
2018-Apr-15 17:59N 49°20' W 123°14'0 0.1
2018-Apr-15 17:26N 49°20' W 123°14'0 0.1
2018-Apr-15 16:59N 49°20' W 123°14'0 0.2
2018-Apr-15 16:26N 49°20' W 123°14'0 0.0
2018-Apr-15 15:56N 49°20' W 123°14'0 0.1
2018-Apr-15 15:23N 49°20' W 123°14'0 0.0
2018-Apr-15 14:59N 49°20' W 123°14'0 0.1
2018-Apr-15 14:26N 49°20' W 123°14'0 0.2
2018-Apr-15 13:59N 49°20' W 123°14'0 0.1
2018-Apr-15 13:29N 49°20' W 123°14'2 4.0
2018-Apr-15 13:00N 49°19' W 123°11'4 8.4
2018-Apr-15 12:30N 49°18' W 123°05'2 3.1
2018-Apr-15 11:51N 49°18' W 123°02'0 0.0
2018-Apr-15 11:21N 49°18' W 123°02'0 0.0
2018-Apr-15 10:57N 49°18' W 123°02'0 0.0
2018-Apr-15 10:30N 49°18' W 123°02'0 0.0
2018-Apr-15 09:54N 49°18' W 123°02'0 0.0
2018-Apr-15 09:27N 49°18' W 123°02'0 0.0
2018-Apr-15 09:00N 49°18' W 123°02'0 0.0
2018-Apr-15 08:30N 49°18' W 123°02'0 0.0
2018-Apr-15 08:00N 49°18' W 123°02'0 0.0
2018-Apr-15 07:30N 49°18' W 123°02'0 0.0
2018-Apr-15 07:00N 49°18' W 123°02'0 0.0
2018-Apr-15 06:27N 49°18' W 123°02'0 0.0
2018-Apr-15 06:00N 49°18' W 123°02'0 0.0
2018-Apr-15 05:12N 49°18' W 123°02'0 0.0
2018-Apr-15 05:00N 49°18' W 123°02'0 0.0
2018-Apr-15 04:24N 49°18' W 123°02'0 0.0
2018-Apr-15 03:57N 49°18' W 123°02'0 0.0
2018-Apr-15 03:27N 49°18' W 123°02'0 0.0
2018-Apr-15 03:00N 49°18' W 123°02'0 0.0
2018-Apr-15 02:30N 49°18' W 123°02'0 0.0
2018-Apr-15 02:00N 49°18' W 123°02'0 0.0
2018-Apr-15 01:30N 49°18' W 123°02'0 0.0
2018-Apr-15 01:00N 49°18' W 123°02'0 0.0
2018-Apr-15 00:27N 49°18' W 123°02'0 0.0
2018-Apr-15 00:00N 49°18' W 123°02'0 0.0
2018-Apr-14 23:30N 49°18' W 123°02'0 0.0
2018-Apr-14 22:57N 49°18' W 123°02'0 0.0
2018-Apr-14 22:30N 49°18' W 123°02'0 0.0
2018-Apr-14 22:00N 49°18' W 123°02'0 0.0
2018-Apr-14 21:30N 49°18' W 123°02'0 0.0
2018-Apr-14 21:00N 49°18' W 123°02'0 0.0
2018-Apr-14 20:30N 49°18' W 123°02'  

Dump ship's entire track history